sensor_id;sensor_type;location;lat;lon;timestamp;temperature;humidity
14188;DHT22;7175;51.978;5.330;2023-04-25T00:00:24;6.00;99.90
14188;DHT22;7175;51.978;5.330;2023-04-25T00:02:53;5.90;99.90
14188;DHT22;7175;51.978;5.330;2023-04-25T00:05:22;5.90;99.90
14188;DHT22;7175;51.978;5.330;2023-04-25T00:07:51;5.90;99.90
14188;DHT22;7175;51.978;5.330;2023-04-25T00:10:19;5.80;99.90
14188;DHT22;7175;51.978;5.330;2023-04-25T00:12:47;5.80;99.90
14188;DHT22;7175;51.978;5.330;2023-04-25T00:15:16;5.80;99.90
14188;DHT22;7175;51.978;5.330;2023-04-25T00:17:44;5.70;99.90
14188;DHT22;7175;51.978;5.330;2023-04-25T00:20:14;5.80;99.90
14188;DHT22;7175;51.978;5.330;2023-04-25T00:22:42;5.70;99.90
14188;DHT22;7175;51.978;5.330;2023-04-25T00:25:11;5.70;99.90
14188;DHT22;7175;51.978;5.330;2023-04-25T00:27:39;5.70;99.90
14188;DHT22;7175;51.978;5.330;2023-04-25T00:30:09;5.70;99.90
14188;DHT22;7175;51.978;5.330;2023-04-25T00:32:37;5.70;99.90
14188;DHT22;7175;51.978;5.330;2023-04-25T00:35:05;5.60;99.90
14188;DHT22;7175;51.978;5.330;2023-04-25T00:37:35;5.50;99.90
14188;DHT22;7175;51.978;5.330;2023-04-25T00:40:05;5.50;99.90
14188;DHT22;7175;51.978;5.330;2023-04-25T00:42:35;5.60;99.90
14188;DHT22;7175;51.978;5.330;2023-04-25T00:45:05;5.70;99.90
14188;DHT22;7175;51.978;5.330;2023-04-25T00:47:36;5.80;99.90
14188;DHT22;7175;51.978;5.330;2023-04-25T00:50:05;5.80;99.90
14188;DHT22;7175;51.978;5.330;2023-04-25T00:52:34;5.80;99.90
14188;DHT22;7175;51.978;5.330;2023-04-25T00:55:02;5.80;99.90
14188;DHT22;7175;51.978;5.330;2023-04-25T00:57:31;5.80;99.90
14188;DHT22;7175;51.978;5.330;2023-04-25T00:59:59;5.70;99.90
14188;DHT22;7175;51.978;5.330;2023-04-25T01:02:28;5.70;99.90
14188;DHT22;7175;51.978;5.330;2023-04-25T01:04:57;5.70;99.90
14188;DHT22;7175;51.978;5.330;2023-04-25T01:07:25;5.60;99.90
14188;DHT22;7175;51.978;5.330;2023-04-25T01:09:55;5.50;99.90
14188;DHT22;7175;51.978;5.330;2023-04-25T01:12:23;5.40;99.90
14188;DHT22;7175;51.978;5.330;2023-04-25T01:14:51;5.40;99.90
14188;DHT22;7175;51.978;5.330;2023-04-25T01:17:20;5.30;99.90
14188;DHT22;7175;51.978;5.330;2023-04-25T01:19:48;5.30;99.90
14188;DHT22;7175;51.978;5.330;2023-04-25T01:22:18;5.20;99.90
14188;DHT22;7175;51.978;5.330;2023-04-25T01:24:47;5.20;99.90
14188;DHT22;7175;51.978;5.330;2023-04-25T01:27:16;5.20;99.90
14188;DHT22;7175;51.978;5.330;2023-04-25T01:29:44;5.20;99.90
14188;DHT22;7175;51.978;5.330;2023-04-25T01:32:13;5.20;99.90
14188;DHT22;7175;51.978;5.330;2023-04-25T01:34:41;5.20;99.90
14188;DHT22;7175;51.978;5.330;2023-04-25T01:37:09;5.20;99.90
14188;DHT22;7175;51.978;5.330;2023-04-25T01:39:39;5.20;99.90
14188;DHT22;7175;51.978;5.330;2023-04-25T01:42:07;5.10;99.90
14188;DHT22;7175;51.978;5.330;2023-04-25T01:44:35;5.10;99.90
14188;DHT22;7175;51.978;5.330;2023-04-25T01:47:03;5.10;99.90
14188;DHT22;7175;51.978;5.330;2023-04-25T01:49:31;5.10;99.90
14188;DHT22;7175;51.978;5.330;2023-04-25T01:51:59;5.10;99.90
14188;DHT22;7175;51.978;5.330;2023-04-25T01:54:27;5.10;99.90
14188;DHT22;7175;51.978;5.330;2023-04-25T01:56:57;5.00;99.90
14188;DHT22;7175;51.978;5.330;2023-04-25T01:59:25;5.00;99.90
14188;DHT22;7175;51.978;5.330;2023-04-25T02:01:53;5.00;99.90
14188;DHT22;7175;51.978;5.330;2023-04-25T02:04:21;5.00;99.90
14188;DHT22;7175;51.978;5.330;2023-04-25T02:06:49;5.00;99.90
14188;DHT22;7175;51.978;5.330;2023-04-25T02:09:17;4.90;99.90
14188;DHT22;7175;51.978;5.330;2023-04-25T02:11:45;4.90;99.90
14188;DHT22;7175;51.978;5.330;2023-04-25T02:14:14;4.80;99.90
14188;DHT22;7175;51.978;5.330;2023-04-25T02:16:42;4.90;99.90
14188;DHT22;7175;51.978;5.330;2023-04-25T02:19:10;4.90;99.90
14188;DHT22;7175;51.978;5.330;2023-04-25T02:21:38;4.80;99.90
14188;DHT22;7175;51.978;5.330;2023-04-25T02:24:07;4.70;99.90
14188;DHT22;7175;51.978;5.330;2023-04-25T02:26:35;4.80;99.90
14188;DHT22;7175;51.978;5.330;2023-04-25T02:29:03;4.80;99.90
14188;DHT22;7175;51.978;5.330;2023-04-25T02:31:32;4.70;99.90
14188;DHT22;7175;51.978;5.330;2023-04-25T02:34:00;4.70;99.90
14188;DHT22;7175;51.978;5.330;2023-04-25T02:36:29;4.70;99.90
14188;DHT22;7175;51.978;5.330;2023-04-25T02:39:00;4.70;99.90
14188;DHT22;7175;51.978;5.330;2023-04-25T02:41:29;4.70;99.90
14188;DHT22;7175;51.978;5.330;2023-04-25T02:43:57;4.70;99.90
14188;DHT22;7175;51.978;5.330;2023-04-25T02:46:25;4.70;99.90
14188;DHT22;7175;51.978;5.330;2023-04-25T02:49:05;4.70;99.90
14188;DHT22;7175;51.978;5.330;2023-04-25T02:51:34;4.80;99.90
14188;DHT22;7175;51.978;5.330;2023-04-25T02:54:02;4.80;99.90
14188;DHT22;7175;51.978;5.330;2023-04-25T02:56:30;4.90;99.90
14188;DHT22;7175;51.978;5.330;2023-04-25T02:58:58;4.90;99.90
14188;DHT22;7175;51.978;5.330;2023-04-25T03:01:26;4.90;99.90
14188;DHT22;7175;51.978;5.330;2023-04-25T03:03:54;4.80;99.90
14188;DHT22;7175;51.978;5.330;2023-04-25T03:06:23;4.80;99.90
14188;DHT22;7175;51.978;5.330;2023-04-25T03:08:51;4.80;99.90
14188;DHT22;7175;51.978;5.330;2023-04-25T03:11:19;4.80;99.90
14188;DHT22;7175;51.978;5.330;2023-04-25T03:13:47;4.80;99.90
14188;DHT22;7175;51.978;5.330;2023-04-25T03:16:16;4.90;99.90
14188;DHT22;7175;51.978;5.330;2023-04-25T03:18:44;4.90;99.90
14188;DHT22;7175;51.978;5.330;2023-04-25T03:21:13;4.90;99.90
14188;DHT22;7175;51.978;5.330;2023-04-25T03:23:44;4.90;99.90
14188;DHT22;7175;51.978;5.330;2023-04-25T03:26:12;4.90;99.90
14188;DHT22;7175;51.978;5.330;2023-04-25T03:28:40;5.00;99.90
14188;DHT22;7175;51.978;5.330;2023-04-25T03:31:08;4.90;99.90
14188;DHT22;7175;51.978;5.330;2023-04-25T03:33:36;4.90;99.90
14188;DHT22;7175;51.978;5.330;2023-04-25T03:36:05;5.00;99.90
14188;DHT22;7175;51.978;5.330;2023-04-25T03:38:33;5.00;99.90
14188;DHT22;7175;51.978;5.330;2023-04-25T03:41:03;5.00;99.90
14188;DHT22;7175;51.978;5.330;2023-04-25T03:43:31;5.00;99.90
14188;DHT22;7175;51.978;5.330;2023-04-25T03:45:59;5.10;99.90
14188;DHT22;7175;51.978;5.330;2023-04-25T03:48:27;5.10;99.90
14188;DHT22;7175;51.978;5.330;2023-04-25T03:50:55;5.00;99.90
14188;DHT22;7175;51.978;5.330;2023-04-25T03:53:23;5.00;99.90
14188;DHT22;7175;51.978;5.330;2023-04-25T03:55:51;5.00;99.90
14188;DHT22;7175;51.978;5.330;2023-04-25T03:58:21;5.00;99.90
14188;DHT22;7175;51.978;5.330;2023-04-25T04:00:49;5.00;99.90
14188;DHT22;7175;51.978;5.330;2023-04-25T04:03:19;5.10;99.90
14188;DHT22;7175;51.978;5.330;2023-04-25T04:05:47;5.10;99.90
14188;DHT22;7175;51.978;5.330;2023-04-25T04:08:15;5.20;99.90
14188;DHT22;7175;51.978;5.330;2023-04-25T04:10:43;5.20;99.90
14188;DHT22;7175;51.978;5.330;2023-04-25T04:13:11;5.30;99.90
14188;DHT22;7175;51.978;5.330;2023-04-25T04:15:40;5.30;99.90
14188;DHT22;7175;51.978;5.330;2023-04-25T04:18:09;5.30;99.90
14188;DHT22;7175;51.978;5.330;2023-04-25T04:20:37;5.40;99.90
14188;DHT22;7175;51.978;5.330;2023-04-25T04:23:05;5.40;99.90
14188;DHT22;7175;51.978;5.330;2023-04-25T04:25:33;5.50;99.90
14188;DHT22;7175;51.978;5.330;2023-04-25T04:28:02;5.50;99.90
14188;DHT22;7175;51.978;5.330;2023-04-25T04:30:30;5.50;99.90
14188;DHT22;7175;51.978;5.330;2023-04-25T04:33:01;5.50;99.90
14188;DHT22;7175;51.978;5.330;2023-04-25T04:35:30;5.50;99.90
14188;DHT22;7175;51.978;5.330;2023-04-25T04:37:58;5.50;99.90
14188;DHT22;7175;51.978;5.330;2023-04-25T04:40:28;5.60;99.90
14188;DHT22;7175;51.978;5.330;2023-04-25T04:42:57;5.60;99.90
14188;DHT22;7175;51.978;5.330;2023-04-25T04:45:25;5.60;99.90
14188;DHT22;7175;51.978;5.330;2023-04-25T04:47:54;5.60;99.90
14188;DHT22;7175;51.978;5.330;2023-04-25T04:50:24;5.60;99.90
14188;DHT22;7175;51.978;5.330;2023-04-25T04:52:53;5.50;99.90
14188;DHT22;7175;51.978;5.330;2023-04-25T04:55:22;5.50;99.90
14188;DHT22;7175;51.978;5.330;2023-04-25T04:57:50;5.50;99.90
14188;DHT22;7175;51.978;5.330;2023-04-25T05:00:18;5.50;99.90
14188;DHT22;7175;51.978;5.330;2023-04-25T05:02:47;5.50;99.90
14188;DHT22;7175;51.978;5.330;2023-04-25T05:05:15;5.50;99.90
14188;DHT22;7175;51.978;5.330;2023-04-25T05:07:45;5.50;99.90
14188;DHT22;7175;51.978;5.330;2023-04-25T05:10:13;5.60;99.90
14188;DHT22;7175;51.978;5.330;2023-04-25T05:12:41;5.60;99.90
14188;DHT22;7175;51.978;5.330;2023-04-25T05:15:09;5.60;99.90
14188;DHT22;7175;51.978;5.330;2023-04-25T05:17:38;5.70;99.90
14188;DHT22;7175;51.978;5.330;2023-04-25T05:20:07;5.70;99.90
14188;DHT22;7175;51.978;5.330;2023-04-25T05:22:36;5.70;99.90
14188;DHT22;7175;51.978;5.330;2023-04-25T05:25:05;5.70;99.90
14188;DHT22;7175;51.978;5.330;2023-04-25T05:27:33;5.80;99.90
14188;DHT22;7175;51.978;5.330;2023-04-25T05:30:02;5.80;99.90
14188;DHT22;7175;51.978;5.330;2023-04-25T05:32:30;5.80;99.90
14188;DHT22;7175;51.978;5.330;2023-04-25T05:34:58;5.80;99.90
14188;DHT22;7175;51.978;5.330;2023-04-25T05:37:26;5.90;99.90
14188;DHT22;7175;51.978;5.330;2023-04-25T05:39:54;5.90;99.90
14188;DHT22;7175;51.978;5.330;2023-04-25T05:42:23;6.00;99.90
14188;DHT22;7175;51.978;5.330;2023-04-25T05:44:51;6.00;99.90
14188;DHT22;7175;51.978;5.330;2023-04-25T05:47:19;6.10;99.90
14188;DHT22;7175;51.978;5.330;2023-04-25T05:49:47;6.20;99.90
14188;DHT22;7175;51.978;5.330;2023-04-25T05:52:16;6.20;99.90
14188;DHT22;7175;51.978;5.330;2023-04-25T05:54:43;6.20;99.90
14188;DHT22;7175;51.978;5.330;2023-04-25T05:57:19;6.30;99.90
14188;DHT22;7175;51.978;5.330;2023-04-25T05:59:48;6.40;99.90
14188;DHT22;7175;51.978;5.330;2023-04-25T06:02:17;6.50;99.90
14188;DHT22;7175;51.978;5.330;2023-04-25T06:04:45;6.60;99.90
14188;DHT22;7175;51.978;5.330;2023-04-25T06:07:13;6.70;99.90
14188;DHT22;7175;51.978;5.330;2023-04-25T06:09:42;6.80;99.90
14188;DHT22;7175;51.978;5.330;2023-04-25T06:12:10;6.80;99.90
14188;DHT22;7175;51.978;5.330;2023-04-25T06:14:38;6.80;99.90
14188;DHT22;7175;51.978;5.330;2023-04-25T06:17:08;6.80;99.90
14188;DHT22;7175;51.978;5.330;2023-04-25T06:19:37;6.90;99.90
14188;DHT22;7175;51.978;5.330;2023-04-25T06:22:05;7.00;99.90
14188;DHT22;7175;51.978;5.330;2023-04-25T06:24:34;7.00;99.90
14188;DHT22;7175;51.978;5.330;2023-04-25T06:27:02;7.10;99.90
14188;DHT22;7175;51.978;5.330;2023-04-25T06:29:30;7.10;99.90
14188;DHT22;7175;51.978;5.330;2023-04-25T06:31:58;7.10;99.90
14188;DHT22;7175;51.978;5.330;2023-04-25T06:34:27;7.20;99.90
14188;DHT22;7175;51.978;5.330;2023-04-25T06:36:55;7.60;99.90
14188;DHT22;7175;51.978;5.330;2023-04-25T06:39:23;7.50;99.90
14188;DHT22;7175;51.978;5.330;2023-04-25T06:41:52;7.40;99.90
14188;DHT22;7175;51.978;5.330;2023-04-25T06:44:20;7.70;99.90
14188;DHT22;7175;51.978;5.330;2023-04-25T06:46:49;8.10;99.90
14188;DHT22;7175;51.978;5.330;2023-04-25T06:49:17;8.30;99.90
14188;DHT22;7175;51.978;5.330;2023-04-25T06:51:47;8.20;99.90
14188;DHT22;7175;51.978;5.330;2023-04-25T06:54:15;8.20;99.90
14188;DHT22;7175;51.978;5.330;2023-04-25T06:56:44;8.40;99.90
14188;DHT22;7175;51.978;5.330;2023-04-25T06:59:12;8.60;99.90
14188;DHT22;7175;51.978;5.330;2023-04-25T07:01:40;8.70;99.90
14188;DHT22;7175;51.978;5.330;2023-04-25T07:04:08;8.90;99.90
14188;DHT22;7175;51.978;5.330;2023-04-25T07:06:36;8.80;99.90
14188;DHT22;7175;51.978;5.330;2023-04-25T07:09:10;9.20;99.90
14188;DHT22;7175;51.978;5.330;2023-04-25T07:11:38;9.30;99.90
14188;DHT22;7175;51.978;5.330;2023-04-25T07:14:06;9.20;99.90
14188;DHT22;7175;51.978;5.330;2023-04-25T07:16:34;9.40;99.90
14188;DHT22;7175;51.978;5.330;2023-04-25T07:19:02;9.60;99.90
14188;DHT22;7175;51.978;5.330;2023-04-25T07:21:30;9.50;99.90
14188;DHT22;7175;51.978;5.330;2023-04-25T07:23:59;9.70;99.90
14188;DHT22;7175;51.978;5.330;2023-04-25T07:26:28;10.00;99.90
14188;DHT22;7175;51.978;5.330;2023-04-25T07:28:56;10.40;99.90
14188;DHT22;7175;51.978;5.330;2023-04-25T07:31:24;10.30;99.90
14188;DHT22;7175;51.978;5.330;2023-04-25T07:33:52;10.00;99.90
14188;DHT22;7175;51.978;5.330;2023-04-25T07:36:20;10.40;99.90
14188;DHT22;7175;51.978;5.330;2023-04-25T07:38:48;10.70;99.90
14188;DHT22;7175;51.978;5.330;2023-04-25T07:41:17;10.50;99.90
14188;DHT22;7175;51.978;5.330;2023-04-25T07:43:46;10.70;99.90
14188;DHT22;7175;51.978;5.330;2023-04-25T07:46:14;10.60;99.90
14188;DHT22;7175;51.978;5.330;2023-04-25T07:48:42;11.10;99.90
14188;DHT22;7175;51.978;5.330;2023-04-25T07:51:10;10.60;99.90
14188;DHT22;7175;51.978;5.330;2023-04-25T07:53:39;10.40;99.90
14188;DHT22;7175;51.978;5.330;2023-04-25T07:56:07;10.20;99.90
14188;DHT22;7175;51.978;5.330;2023-04-25T07:58:36;10.10;99.90
14188;DHT22;7175;51.978;5.330;2023-04-25T08:01:05;10.00;99.90
14188;DHT22;7175;51.978;5.330;2023-04-25T08:03:33;9.90;99.90
14188;DHT22;7175;51.978;5.330;2023-04-25T08:06:02;9.80;99.90
14188;DHT22;7175;51.978;5.330;2023-04-25T08:08:34;9.70;99.90
14188;DHT22;7175;51.978;5.330;2023-04-25T08:11:02;9.50;99.90
14188;DHT22;7175;51.978;5.330;2023-04-25T08:13:30;9.50;99.90
14188;DHT22;7175;51.978;5.330;2023-04-25T08:15:58;9.40;99.90
14188;DHT22;7175;51.978;5.330;2023-04-25T08:18:28;9.60;99.90
14188;DHT22;7175;51.978;5.330;2023-04-25T08:20:56;9.70;99.90
14188;DHT22;7175;51.978;5.330;2023-04-25T08:23:24;9.70;99.90
14188;DHT22;7175;51.978;5.330;2023-04-25T08:25:52;9.70;99.90
14188;DHT22;7175;51.978;5.330;2023-04-25T08:28:20;9.90;99.90
14188;DHT22;7175;51.978;5.330;2023-04-25T08:30:48;9.90;99.90
14188;DHT22;7175;51.978;5.330;2023-04-25T08:33:16;10.30;99.90
14188;DHT22;7175;51.978;5.330;2023-04-25T08:35:46;10.70;99.90
14188;DHT22;7175;51.978;5.330;2023-04-25T08:38:16;11.20;99.90
14188;DHT22;7175;51.978;5.330;2023-04-25T08:40:44;11.40;99.90
14188;DHT22;7175;51.978;5.330;2023-04-25T08:43:13;11.30;99.90
14188;DHT22;7175;51.978;5.330;2023-04-25T08:45:42;11.50;99.90
14188;DHT22;7175;51.978;5.330;2023-04-25T08:48:12;10.90;99.90
14188;DHT22;7175;51.978;5.330;2023-04-25T08:50:48;11.20;99.90
14188;DHT22;7175;51.978;5.330;2023-04-25T08:53:22;11.40;99.90
14188;DHT22;7175;51.978;5.330;2023-04-25T08:55:54;11.90;99.90
14188;DHT22;7175;51.978;5.330;2023-04-25T08:58:23;12.00;99.90
14188;DHT22;7175;51.978;5.330;2023-04-25T09:00:52;12.30;99.90
14188;DHT22;7175;51.978;5.330;2023-04-25T09:03:20;11.70;99.90
14188;DHT22;7175;51.978;5.330;2023-04-25T09:05:51;11.50;99.90
14188;DHT22;7175;51.978;5.330;2023-04-25T09:08:19;11.40;99.90
14188;DHT22;7175;51.978;5.330;2023-04-25T09:10:47;11.10;99.90
14188;DHT22;7175;51.978;5.330;2023-04-25T09:13:24;10.80;99.90
14188;DHT22;7175;51.978;5.330;2023-04-25T09:15:54;10.70;99.90
14188;DHT22;7175;51.978;5.330;2023-04-25T09:18:23;10.50;99.90
14188;DHT22;7175;51.978;5.330;2023-04-25T09:21:05;10.40;99.90
14188;DHT22;7175;51.978;5.330;2023-04-25T09:23:41;10.70;99.90
14188;DHT22;7175;51.978;5.330;2023-04-25T09:26:10;10.70;99.90
14188;DHT22;7175;51.978;5.330;2023-04-25T09:28:41;11.30;99.90
14188;DHT22;7175;51.978;5.330;2023-04-25T09:31:10;12.00;99.90
14188;DHT22;7175;51.978;5.330;2023-04-25T09:33:40;12.30;99.90
14188;DHT22;7175;51.978;5.330;2023-04-25T09:36:10;12.50;99.90
14188;DHT22;7175;51.978;5.330;2023-04-25T09:38:41;12.50;99.90
14188;DHT22;7175;51.978;5.330;2023-04-25T09:41:11;12.50;99.90
14188;DHT22;7175;51.978;5.330;2023-04-25T09:43:39;12.80;99.90
14188;DHT22;7175;51.978;5.330;2023-04-25T09:46:09;13.10;99.90
14188;DHT22;7175;51.978;5.330;2023-04-25T09:48:38;13.40;99.90
14188;DHT22;7175;51.978;5.330;2023-04-25T09:51:07;13.20;99.90
14188;DHT22;7175;51.978;5.330;2023-04-25T09:53:38;13.50;99.90
14188;DHT22;7175;51.978;5.330;2023-04-25T09:56:08;13.70;99.90
14188;DHT22;7175;51.978;5.330;2023-04-25T09:58:38;13.90;99.90
14188;DHT22;7175;51.978;5.330;2023-04-25T10:01:07;13.90;99.90
14188;DHT22;7175;51.978;5.330;2023-04-25T10:03:37;14.10;99.90
14188;DHT22;7175;51.978;5.330;2023-04-25T10:06:08;14.30;99.90
14188;DHT22;7175;51.978;5.330;2023-04-25T10:08:38;14.10;99.90
14188;DHT22;7175;51.978;5.330;2023-04-25T10:11:08;13.80;99.90
14188;DHT22;7175;51.978;5.330;2023-04-25T10:13:36;13.40;99.90
14188;DHT22;7175;51.978;5.330;2023-04-25T10:16:05;13.00;99.90
14188;DHT22;7175;51.978;5.330;2023-04-25T10:18:33;12.70;99.90
14188;DHT22;7175;51.978;5.330;2023-04-25T10:21:03;12.40;99.90
14188;DHT22;7175;51.978;5.330;2023-04-25T10:23:32;12.30;99.90
14188;DHT22;7175;51.978;5.330;2023-04-25T10:26:02;12.10;99.90
14188;DHT22;7175;51.978;5.330;2023-04-25T10:28:57;12.10;99.90
14188;DHT22;7175;51.978;5.330;2023-04-25T10:31:25;11.90;99.90
14188;DHT22;7175;51.978;5.330;2023-04-25T10:33:53;11.90;99.90
14188;DHT22;7175;51.978;5.330;2023-04-25T10:36:23;11.90;99.90
14188;DHT22;7175;51.978;5.330;2023-04-25T10:38:51;11.90;99.90
14188;DHT22;7175;51.978;5.330;2023-04-25T10:41:22;11.70;99.90
14188;DHT22;7175;51.978;5.330;2023-04-25T10:43:59;11.70;99.90
14188;DHT22;7175;51.978;5.330;2023-04-25T10:46:29;11.70;99.90
14188;DHT22;7175;51.978;5.330;2023-04-25T10:49:01;11.70;99.90
14188;DHT22;7175;51.978;5.330;2023-04-25T10:51:32;11.60;99.90
14188;DHT22;7175;51.978;5.330;2023-04-25T10:54:22;11.80;99.90
14188;DHT22;7175;51.978;5.330;2023-04-25T10:56:54;12.10;99.90
14188;DHT22;7175;51.978;5.330;2023-04-25T10:59:25;12.20;99.90
14188;DHT22;7175;51.978;5.330;2023-04-25T11:01:53;12.10;99.90
14188;DHT22;7175;51.978;5.330;2023-04-25T11:04:23;12.20;99.90
14188;DHT22;7175;51.978;5.330;2023-04-25T11:07:00;12.20;99.90
14188;DHT22;7175;51.978;5.330;2023-04-25T11:09:34;12.30;99.90
14188;DHT22;7175;51.978;5.330;2023-04-25T11:12:04;12.60;99.90
14188;DHT22;7175;51.978;5.330;2023-04-25T11:14:32;12.70;99.90
14188;DHT22;7175;51.978;5.330;2023-04-25T11:17:00;13.10;99.90
14188;DHT22;7175;51.978;5.330;2023-04-25T11:19:29;13.40;99.90
14188;DHT22;7175;51.978;5.330;2023-04-25T11:21:58;13.70;99.90
14188;DHT22;7175;51.978;5.330;2023-04-25T11:24:27;13.40;99.90
14188;DHT22;7175;51.978;5.330;2023-04-25T11:26:57;13.70;99.90
14188;DHT22;7175;51.978;5.330;2023-04-25T11:29:28;14.10;99.90
14188;DHT22;7175;51.978;5.330;2023-04-25T11:31:57;14.50;99.90
14188;DHT22;7175;51.978;5.330;2023-04-25T11:34:25;14.90;99.90
14188;DHT22;7175;51.978;5.330;2023-04-25T11:36:54;14.60;99.90
14188;DHT22;7175;51.978;5.330;2023-04-25T11:39:24;14.30;99.90
14188;DHT22;7175;51.978;5.330;2023-04-25T11:41:53;13.60;99.90
14188;DHT22;7175;51.978;5.330;2023-04-25T11:44:22;13.20;99.90
14188;DHT22;7175;51.978;5.330;2023-04-25T11:46:51;13.90;99.90
14188;DHT22;7175;51.978;5.330;2023-04-25T11:49:19;14.40;99.90
14188;DHT22;7175;51.978;5.330;2023-04-25T11:51:48;14.40;99.90
14188;DHT22;7175;51.978;5.330;2023-04-25T11:54:17;13.40;99.90
14188;DHT22;7175;51.978;5.330;2023-04-25T11:56:45;12.90;99.90
14188;DHT22;7175;51.978;5.330;2023-04-25T11:59:14;13.30;99.90
14188;DHT22;7175;51.978;5.330;2023-04-25T12:01:48;13.20;99.90
14188;DHT22;7175;51.978;5.330;2023-04-25T12:04:19;14.20;99.90
14188;DHT22;7175;51.978;5.330;2023-04-25T12:06:50;14.70;99.90
14188;DHT22;7175;51.978;5.330;2023-04-25T12:09:20;14.20;99.90
14188;DHT22;7175;51.978;5.330;2023-04-25T12:11:53;15.00;99.90
14188;DHT22;7175;51.978;5.330;2023-04-25T12:14:22;15.30;99.90
14188;DHT22;7175;51.978;5.330;2023-04-25T12:16:51;14.60;99.90
14188;DHT22;7175;51.978;5.330;2023-04-25T12:19:21;14.20;99.90
14188;DHT22;7175;51.978;5.330;2023-04-25T12:21:50;14.70;98.90
14188;DHT22;7175;51.978;5.330;2023-04-25T12:24:23;14.80;99.30
14188;DHT22;7175;51.978;5.330;2023-04-25T12:26:53;13.80;99.90
14188;DHT22;7175;51.978;5.330;2023-04-25T12:29:23;13.40;99.90
14188;DHT22;7175;51.978;5.330;2023-04-25T12:31:57;13.30;99.90
14188;DHT22;7175;51.978;5.330;2023-04-25T12:34:28;13.30;99.90
14188;DHT22;7175;51.978;5.330;2023-04-25T12:36:58;13.20;99.90
14188;DHT22;7175;51.978;5.330;2023-04-25T12:39:26;12.80;99.90
14188;DHT22;7175;51.978;5.330;2023-04-25T12:41:54;12.40;99.90
14188;DHT22;7175;51.978;5.330;2023-04-25T12:44:22;12.10;99.90
14188;DHT22;7175;51.978;5.330;2023-04-25T12:46:51;12.10;99.90
14188;DHT22;7175;51.978;5.330;2023-04-25T12:49:19;12.10;99.90
14188;DHT22;7175;51.978;5.330;2023-04-25T12:51:49;12.10;99.90
14188;DHT22;7175;51.978;5.330;2023-04-25T12:54:18;11.90;99.90
14188;DHT22;7175;51.978;5.330;2023-04-25T12:56:46;11.90;99.90
14188;DHT22;7175;51.978;5.330;2023-04-25T12:59:15;12.10;99.60
14188;DHT22;7175;51.978;5.330;2023-04-25T13:01:43;12.40;99.90
14188;DHT22;7175;51.978;5.330;2023-04-25T13:04:12;12.50;99.60
14188;DHT22;7175;51.978;5.330;2023-04-25T13:06:40;13.00;99.20
14188;DHT22;7175;51.978;5.330;2023-04-25T13:09:10;13.60;98.80
14188;DHT22;7175;51.978;5.330;2023-04-25T13:11:39;14.40;98.40
14188;DHT22;7175;51.978;5.330;2023-04-25T13:14:08;15.00;97.80
14188;DHT22;7175;51.978;5.330;2023-04-25T13:16:36;15.90;97.90
14188;DHT22;7175;51.978;5.330;2023-04-25T13:19:04;15.70;97.90
14188;DHT22;7175;51.978;5.330;2023-04-25T13:21:34;15.90;97.40
14188;DHT22;7175;51.978;5.330;2023-04-25T13:24:03;16.30;96.90
14188;DHT22;7175;51.978;5.330;2023-04-25T13:26:33;16.20;97.30
14188;DHT22;7175;51.978;5.330;2023-04-25T13:29:01;16.20;97.70
14188;DHT22;7175;51.978;5.330;2023-04-25T13:31:31;14.90;97.30
14188;DHT22;7175;51.978;5.330;2023-04-25T13:33:59;13.90;98.10
14188;DHT22;7175;51.978;5.330;2023-04-25T13:36:27;13.40;99.10
14188;DHT22;7175;51.978;5.330;2023-04-25T13:38:55;13.30;99.10
14188;DHT22;7175;51.978;5.330;2023-04-25T13:41:23;13.50;99.20
14188;DHT22;7175;51.978;5.330;2023-04-25T13:43:53;13.40;99.30
14188;DHT22;7175;51.978;5.330;2023-04-25T13:46:21;14.40;98.70
14188;DHT22;7175;51.978;5.330;2023-04-25T13:49:09;15.30;98.10
14188;DHT22;7175;51.978;5.330;2023-04-25T13:51:39;15.30;97.30
14188;DHT22;7175;51.978;5.330;2023-04-25T13:54:07;14.50;96.10
14188;DHT22;7175;51.978;5.330;2023-04-25T13:56:35;15.00;95.70
14188;DHT22;7175;51.978;5.330;2023-04-25T13:59:05;15.50;95.10
14188;DHT22;7175;51.978;5.330;2023-04-25T14:01:33;15.90;92.30
14188;DHT22;7175;51.978;5.330;2023-04-25T14:04:02;16.00;92.30
14188;DHT22;7175;51.978;5.330;2023-04-25T14:06:32;15.70;92.00
14188;DHT22;7175;51.978;5.330;2023-04-25T14:09:01;15.80;91.10
14188;DHT22;7175;51.978;5.330;2023-04-25T14:11:31;15.90;92.30
14188;DHT22;7175;51.978;5.330;2023-04-25T14:13:59;16.10;92.30
14188;DHT22;7175;51.978;5.330;2023-04-25T14:16:29;15.20;91.70
14188;DHT22;7175;51.978;5.330;2023-04-25T14:18:58;15.20;92.10
14188;DHT22;7175;51.978;5.330;2023-04-25T14:21:27;15.30;92.20
14188;DHT22;7175;51.978;5.330;2023-04-25T14:23:55;14.80;92.80
14188;DHT22;7175;51.978;5.330;2023-04-25T14:26:24;15.00;92.80
14188;DHT22;7175;51.978;5.330;2023-04-25T14:28:52;15.40;91.60
14188;DHT22;7175;51.978;5.330;2023-04-25T14:31:20;15.40;91.50
14188;DHT22;7175;51.978;5.330;2023-04-25T14:33:50;14.50;91.90
14188;DHT22;7175;51.978;5.330;2023-04-25T14:36:20;13.80;92.00
14188;DHT22;7175;51.978;5.330;2023-04-25T14:38:48;14.00;92.80
14188;DHT22;7175;51.978;5.330;2023-04-25T14:41:17;14.40;94.90
14188;DHT22;7175;51.978;5.330;2023-04-25T14:43:45;14.50;96.20
14188;DHT22;7175;51.978;5.330;2023-04-25T14:46:13;14.40;95.50
14188;DHT22;7175;51.978;5.330;2023-04-25T14:48:41;14.10;96.40
14188;DHT22;7175;51.978;5.330;2023-04-25T14:51:11;13.50;97.80
14188;DHT22;7175;51.978;5.330;2023-04-25T14:53:39;13.20;98.30
14188;DHT22;7175;51.978;5.330;2023-04-25T14:56:08;12.70;99.00
14188;DHT22;7175;51.978;5.330;2023-04-25T14:58:36;12.30;99.90
14188;DHT22;7175;51.978;5.330;2023-04-25T15:01:05;12.10;99.90
14188;DHT22;7175;51.978;5.330;2023-04-25T15:03:35;12.10;99.90
14188;DHT22;7175;51.978;5.330;2023-04-25T15:06:04;12.00;99.90
14188;DHT22;7175;51.978;5.330;2023-04-25T15:08:34;12.20;99.90
14188;DHT22;7175;51.978;5.330;2023-04-25T15:11:03;12.60;99.90
14188;DHT22;7175;51.978;5.330;2023-04-25T15:13:31;12.70;99.80
14188;DHT22;7175;51.978;5.330;2023-04-25T15:16:01;12.70;99.90
14188;DHT22;7175;51.978;5.330;2023-04-25T15:18:30;12.70;99.90
14188;DHT22;7175;51.978;5.330;2023-04-25T15:20:58;12.70;99.90
14188;DHT22;7175;51.978;5.330;2023-04-25T15:23:26;12.70;99.40
14188;DHT22;7175;51.978;5.330;2023-04-25T15:25:57;12.60;99.00
14188;DHT22;7175;51.978;5.330;2023-04-25T15:28:25;12.20;99.40
14188;DHT22;7175;51.978;5.330;2023-04-25T15:30:53;12.10;98.30
14188;DHT22;7175;51.978;5.330;2023-04-25T15:33:21;12.20;98.50
14188;DHT22;7175;51.978;5.330;2023-04-25T15:35:50;12.10;97.60
14188;DHT22;7175;51.978;5.330;2023-04-25T15:38:18;11.90;97.50
14188;DHT22;7175;51.978;5.330;2023-04-25T15:40:46;11.90;98.60
14188;DHT22;7175;51.978;5.330;2023-04-25T15:43:15;11.90;98.60
14188;DHT22;7175;51.978;5.330;2023-04-25T15:45:44;11.90;98.70
14188;DHT22;7175;51.978;5.330;2023-04-25T15:48:12;11.90;99.10
14188;DHT22;7175;51.978;5.330;2023-04-25T15:50:40;11.80;99.00
14188;DHT22;7175;51.978;5.330;2023-04-25T15:53:09;11.60;99.60
14188;DHT22;7175;51.978;5.330;2023-04-25T15:55:40;11.40;99.90
14188;DHT22;7175;51.978;5.330;2023-04-25T15:58:08;11.50;99.90
14188;DHT22;7175;51.978;5.330;2023-04-25T16:00:40;11.50;99.90
14188;DHT22;7175;51.978;5.330;2023-04-25T16:03:09;11.40;99.50
14188;DHT22;7175;51.978;5.330;2023-04-25T16:05:37;11.40;99.60